Grandview Heights, Ohio
Current Conditions -  °F | °C
As of 8:53 PM on Tuesday 21 Oct 2014 (Local Time) from KOSU Reporting Station
Overcast Overcast  
Wind Chill:   Ceiling: 3100
Heat Index:   Visibility: 10mi
Dew Point:   Wind: 12mph
Humidity: 82%   Direction: 340°NNW
Pressure: 30.13"   Gusts: NA
Location:  39.987°N, 83.0425°W
Report Text: KOSU 220053Z 34010KT 10SM SCT018 OVC031 07/04 A3013 RMK AO2 SLP206 T00720044
Loading
Personal Weather Stations






























Interactive Weather Map
Tropical Storm Tracking
New forecast layout! Learn more

10-Day Weather Forecast

Advertisements
Track Severe Weather on mobile